sensor_id;sensor_type;location;lat;lon;timestamp;temperature;humidity
35690;DHT22;26977;44.830;-0.674;2022-09-19T00:01:16;13.50;78.80
35690;DHT22;26977;44.830;-0.674;2022-09-19T00:03:45;13.50;78.70
35690;DHT22;26977;44.830;-0.674;2022-09-19T00:06:13;13.40;78.90
35690;DHT22;26977;44.830;-0.674;2022-09-19T00:08:41;13.30;78.90
35690;DHT22;26977;44.830;-0.674;2022-09-19T00:11:08;13.30;79.50
35690;DHT22;26977;44.830;-0.674;2022-09-19T00:13:36;13.30;79.30
35690;DHT22;26977;44.830;-0.674;2022-09-19T00:16:02;13.30;79.80
35690;DHT22;26977;44.830;-0.674;2022-09-19T00:18:28;13.20;79.80
35690;DHT22;26977;44.830;-0.674;2022-09-19T00:20:55;13.10;80.00
35690;DHT22;26977;44.830;-0.674;2022-09-19T00:23:20;13.10;80.50
35690;DHT22;26977;44.830;-0.674;2022-09-19T00:26:10;13.10;80.80
35690;DHT22;26977;44.830;-0.674;2022-09-19T00:28:36;13.10;80.60
35690;DHT22;26977;44.830;-0.674;2022-09-19T00:31:03;13.00;80.90
35690;DHT22;26977;44.830;-0.674;2022-09-19T00:33:31;13.00;80.80
35690;DHT22;26977;44.830;-0.674;2022-09-19T00:35:58;12.90;81.10
35690;DHT22;26977;44.830;-0.674;2022-09-19T00:38:26;12.90;81.40
35690;DHT22;26977;44.830;-0.674;2022-09-19T00:40:54;12.80;81.70
35690;DHT22;26977;44.830;-0.674;2022-09-19T00:43:41;12.80;81.70
35690;DHT22;26977;44.830;-0.674;2022-09-19T00:46:07;12.70;82.00
35690;DHT22;26977;44.830;-0.674;2022-09-19T00:48:33;12.60;82.60
35690;DHT22;26977;44.830;-0.674;2022-09-19T00:50:59;12.60;82.80
35690;DHT22;26977;44.830;-0.674;2022-09-19T00:53:26;12.50;82.80
35690;DHT22;26977;44.830;-0.674;2022-09-19T00:55:57;12.50;82.80
35690;DHT22;26977;44.830;-0.674;2022-09-19T00:58:28;12.50;83.10
35690;DHT22;26977;44.830;-0.674;2022-09-19T01:00:55;12.50;83.10
35690;DHT22;26977;44.830;-0.674;2022-09-19T01:03:21;12.50;83.50
35690;DHT22;26977;44.830;-0.674;2022-09-19T01:14:13;12.60;83.20
35690;DHT22;26977;44.830;-0.674;2022-09-19T01:16:48;12.60;83.20
35690;DHT22;26977;44.830;-0.674;2022-09-19T01:22:25;12.50;83.80
35690;DHT22;26977;44.830;-0.674;2022-09-19T01:28:02;12.60;83.50
35690;DHT22;26977;44.830;-0.674;2022-09-19T01:30:29;12.60;83.70
35690;DHT22;26977;44.830;-0.674;2022-09-19T01:33:22;12.60;83.60
35690;DHT22;26977;44.830;-0.674;2022-09-19T01:35:52;12.50;83.80
35690;DHT22;26977;44.830;-0.674;2022-09-19T01:38:26;12.50;84.00
35690;DHT22;26977;44.830;-0.674;2022-09-19T01:40:54;12.40;84.00
35690;DHT22;26977;44.830;-0.674;2022-09-19T01:43:20;12.40;84.00
35690;DHT22;26977;44.830;-0.674;2022-09-19T01:45:47;12.50;84.10
35690;DHT22;26977;44.830;-0.674;2022-09-19T01:48:36;12.50;83.80
35690;DHT22;26977;44.830;-0.674;2022-09-19T01:51:11;12.40;84.10
35690;DHT22;26977;44.830;-0.674;2022-09-19T02:04:38;12.00;85.60
35690;DHT22;26977;44.830;-0.674;2022-09-19T02:07:25;12.10;85.60
35690;DHT22;26977;44.830;-0.674;2022-09-19T02:10:19;12.10;85.20
35690;DHT22;26977;44.830;-0.674;2022-09-19T02:12:49;12.20;84.90
35690;DHT22;26977;44.830;-0.674;2022-09-19T02:15:19;12.20;85.10
35690;DHT22;26977;44.830;-0.674;2022-09-19T02:18:05;12.20;85.00
35690;DHT22;26977;44.830;-0.674;2022-09-19T02:20:33;12.10;85.20
35690;DHT22;26977;44.830;-0.674;2022-09-19T02:23:16;12.00;85.30
35690;DHT22;26977;44.830;-0.674;2022-09-19T02:25:45;12.00;85.40
35690;DHT22;26977;44.830;-0.674;2022-09-19T02:28:19;12.00;85.60
35690;DHT22;26977;44.830;-0.674;2022-09-19T02:30:48;11.90;85.90
35690;DHT22;26977;44.830;-0.674;2022-09-19T02:33:15;11.80;86.20
35690;DHT22;26977;44.830;-0.674;2022-09-19T02:38:15;11.80;86.40
35690;DHT22;26977;44.830;-0.674;2022-09-19T02:43:40;11.60;86.60
35690;DHT22;26977;44.830;-0.674;2022-09-19T02:46:35;11.70;86.90
35690;DHT22;26977;44.830;-0.674;2022-09-19T02:49:10;11.70;86.60
35690;DHT22;26977;44.830;-0.674;2022-09-19T02:52:00;11.70;86.70
35690;DHT22;26977;44.830;-0.674;2022-09-19T02:54:31;11.70;86.60
35690;DHT22;26977;44.830;-0.674;2022-09-19T02:57:03;11.70;86.60
35690;DHT22;26977;44.830;-0.674;2022-09-19T02:59:34;11.70;86.60
35690;DHT22;26977;44.830;-0.674;2022-09-19T03:02:10;11.70;86.80
35690;DHT22;26977;44.830;-0.674;2022-09-19T03:04:39;11.60;86.70
35690;DHT22;26977;44.830;-0.674;2022-09-19T03:07:12;11.50;87.30
35690;DHT22;26977;44.830;-0.674;2022-09-19T03:09:50;11.40;87.40
35690;DHT22;26977;44.830;-0.674;2022-09-19T03:12:22;11.20;87.50
35690;DHT22;26977;44.830;-0.674;2022-09-19T03:14:50;11.00;87.80
35690;DHT22;26977;44.830;-0.674;2022-09-19T03:17:29;11.00;88.80
35690;DHT22;26977;44.830;-0.674;2022-09-19T03:19:56;10.90;89.50
35690;DHT22;26977;44.830;-0.674;2022-09-19T03:22:23;10.80;89.60
35690;DHT22;26977;44.830;-0.674;2022-09-19T03:24:51;10.70;89.90
35690;DHT22;26977;44.830;-0.674;2022-09-19T03:27:17;10.60;90.00
35690;DHT22;26977;44.830;-0.674;2022-09-19T03:29:42;10.80;90.10
35690;DHT22;26977;44.830;-0.674;2022-09-19T03:32:08;10.70;90.00
35690;DHT22;26977;44.830;-0.674;2022-09-19T03:34:35;10.60;90.10
35690;DHT22;26977;44.830;-0.674;2022-09-19T03:37:01;10.40;90.30
35690;DHT22;26977;44.830;-0.674;2022-09-19T03:39:28;10.30;90.80
35690;DHT22;26977;44.830;-0.674;2022-09-19T03:41:54;10.30;90.60
35690;DHT22;26977;44.830;-0.674;2022-09-19T03:44:21;10.30;90.70
35690;DHT22;26977;44.830;-0.674;2022-09-19T03:46:47;10.20;90.70
35690;DHT22;26977;44.830;-0.674;2022-09-19T03:49:13;10.00;91.00
35690;DHT22;26977;44.830;-0.674;2022-09-19T03:51:39;9.90;91.10
35690;DHT22;26977;44.830;-0.674;2022-09-19T03:54:05;9.90;91.40
35690;DHT22;26977;44.830;-0.674;2022-09-19T03:56:31;9.80;91.90
35690;DHT22;26977;44.830;-0.674;2022-09-19T03:58:56;9.80;91.90
35690;DHT22;26977;44.830;-0.674;2022-09-19T04:01:22;9.80;92.10
35690;DHT22;26977;44.830;-0.674;2022-09-19T04:03:48;9.90;92.00
35690;DHT22;26977;44.830;-0.674;2022-09-19T04:06:15;9.90;92.00
35690;DHT22;26977;44.830;-0.674;2022-09-19T04:08:41;9.90;91.80
35690;DHT22;26977;44.830;-0.674;2022-09-19T04:11:07;9.80;92.00
35690;DHT22;26977;44.830;-0.674;2022-09-19T04:13:33;9.80;92.10
35690;DHT22;26977;44.830;-0.674;2022-09-19T04:15:59;9.70;92.60
35690;DHT22;26977;44.830;-0.674;2022-09-19T04:18:26;9.80;92.50
35690;DHT22;26977;44.830;-0.674;2022-09-19T04:20:51;10.00;92.50
35690;DHT22;26977;44.830;-0.674;2022-09-19T04:23:18;10.30;92.20
35690;DHT22;26977;44.830;-0.674;2022-09-19T04:25:44;10.30;91.70
35690;DHT22;26977;44.830;-0.674;2022-09-19T04:28:12;10.40;91.50
35690;DHT22;26977;44.830;-0.674;2022-09-19T04:30:39;10.40;91.70
35690;DHT22;26977;44.830;-0.674;2022-09-19T04:33:08;10.40;91.60
35690;DHT22;26977;44.830;-0.674;2022-09-19T04:35:36;10.50;91.40
35690;DHT22;26977;44.830;-0.674;2022-09-19T04:38:10;10.40;91.50
35690;DHT22;26977;44.830;-0.674;2022-09-19T04:40:45;10.40;91.70
35690;DHT22;26977;44.830;-0.674;2022-09-19T04:43:13;10.40;91.50
35690;DHT22;26977;44.830;-0.674;2022-09-19T04:45:39;10.30;91.80
35690;DHT22;26977;44.830;-0.674;2022-09-19T04:48:06;10.30;91.80
35690;DHT22;26977;44.830;-0.674;2022-09-19T04:50:35;10.30;91.90
35690;DHT22;26977;44.830;-0.674;2022-09-19T04:53:02;10.30;91.90
35690;DHT22;26977;44.830;-0.674;2022-09-19T04:55:28;10.40;91.80
35690;DHT22;26977;44.830;-0.674;2022-09-19T04:57:58;10.50;91.70
35690;DHT22;26977;44.830;-0.674;2022-09-19T05:00:26;10.60;91.60
35690;DHT22;26977;44.830;-0.674;2022-09-19T05:03:06;10.70;91.50
35690;DHT22;26977;44.830;-0.674;2022-09-19T05:05:36;10.70;91.30
35690;DHT22;26977;44.830;-0.674;2022-09-19T05:08:04;10.70;91.40
35690;DHT22;26977;44.830;-0.674;2022-09-19T05:10:31;10.60;91.50
35690;DHT22;26977;44.830;-0.674;2022-09-19T05:12:58;10.60;91.50
35690;DHT22;26977;44.830;-0.674;2022-09-19T05:15:24;10.60;91.40
35690;DHT22;26977;44.830;-0.674;2022-09-19T05:17:51;10.60;91.30
35690;DHT22;26977;44.830;-0.674;2022-09-19T05:20:19;10.70;91.20
35690;DHT22;26977;44.830;-0.674;2022-09-19T05:22:45;10.70;91.00
35690;DHT22;26977;44.830;-0.674;2022-09-19T05:25:11;10.80;91.00
35690;DHT22;26977;44.830;-0.674;2022-09-19T05:27:41;10.80;91.00
35690;DHT22;26977;44.830;-0.674;2022-09-19T05:30:08;10.70;91.10
35690;DHT22;26977;44.830;-0.674;2022-09-19T05:32:34;10.70;91.30
35690;DHT22;26977;44.830;-0.674;2022-09-19T05:35:00;10.70;91.30
35690;DHT22;26977;44.830;-0.674;2022-09-19T05:37:29;10.60;91.30
35690;DHT22;26977;44.830;-0.674;2022-09-19T05:39:56;10.60;91.60
35690;DHT22;26977;44.830;-0.674;2022-09-19T05:42:21;10.50;91.70
35690;DHT22;26977;44.830;-0.674;2022-09-19T05:44:47;10.50;91.70
35690;DHT22;26977;44.830;-0.674;2022-09-19T05:47:12;10.50;91.80
35690;DHT22;26977;44.830;-0.674;2022-09-19T05:49:38;10.50;91.90
35690;DHT22;26977;44.830;-0.674;2022-09-19T05:52:04;10.50;91.90
35690;DHT22;26977;44.830;-0.674;2022-09-19T05:54:49;10.40;91.80
35690;DHT22;26977;44.830;-0.674;2022-09-19T05:57:14;10.40;92.00
35690;DHT22;26977;44.830;-0.674;2022-09-19T05:59:44;10.40;91.90
35690;DHT22;26977;44.830;-0.674;2022-09-19T06:02:09;10.40;91.90
35690;DHT22;26977;44.830;-0.674;2022-09-19T06:04:35;10.50;91.90
35690;DHT22;26977;44.830;-0.674;2022-09-19T06:07:01;10.40;91.90
35690;DHT22;26977;44.830;-0.674;2022-09-19T06:09:27;10.40;91.90
35690;DHT22;26977;44.830;-0.674;2022-09-19T06:11:53;10.40;92.00
35690;DHT22;26977;44.830;-0.674;2022-09-19T06:14:19;10.40;92.00
35690;DHT22;26977;44.830;-0.674;2022-09-19T06:16:47;10.40;92.10
35690;DHT22;26977;44.830;-0.674;2022-09-19T06:19:13;10.40;92.00
35690;DHT22;26977;44.830;-0.674;2022-09-19T06:21:39;10.50;92.00
35690;DHT22;26977;44.830;-0.674;2022-09-19T06:24:05;10.50;91.90
35690;DHT22;26977;44.830;-0.674;2022-09-19T06:26:33;10.60;91.80
35690;DHT22;26977;44.830;-0.674;2022-09-19T06:28:59;10.50;91.90
35690;DHT22;26977;44.830;-0.674;2022-09-19T06:31:27;10.60;92.10
35690;DHT22;26977;44.830;-0.674;2022-09-19T06:33:53;10.60;92.10
35690;DHT22;26977;44.830;-0.674;2022-09-19T06:36:19;10.60;91.80
35690;DHT22;26977;44.830;-0.674;2022-09-19T06:38:45;10.80;91.60
35690;DHT22;26977;44.830;-0.674;2022-09-19T06:41:11;10.90;91.50
35690;DHT22;26977;44.830;-0.674;2022-09-19T06:43:37;11.00;91.50
35690;DHT22;26977;44.830;-0.674;2022-09-19T06:46:04;11.00;91.40
35690;DHT22;26977;44.830;-0.674;2022-09-19T06:48:29;11.20;91.10
35690;DHT22;26977;44.830;-0.674;2022-09-19T06:50:56;11.30;90.90
35690;DHT22;26977;44.830;-0.674;2022-09-19T06:53:22;11.40;90.70
35690;DHT22;26977;44.830;-0.674;2022-09-19T06:55:48;11.50;90.70
35690;DHT22;26977;44.830;-0.674;2022-09-19T06:58:14;11.60;90.50
35690;DHT22;26977;44.830;-0.674;2022-09-19T07:00:41;11.70;90.30
35690;DHT22;26977;44.830;-0.674;2022-09-19T07:03:11;11.80;90.20
35690;DHT22;26977;44.830;-0.674;2022-09-19T07:05:40;12.00;90.10
35690;DHT22;26977;44.830;-0.674;2022-09-19T07:08:08;12.00;90.00
35690;DHT22;26977;44.830;-0.674;2022-09-19T07:10:34;12.20;89.20
35690;DHT22;26977;44.830;-0.674;2022-09-19T07:13:02;12.30;88.70
35690;DHT22;26977;44.830;-0.674;2022-09-19T07:15:33;12.40;88.50
35690;DHT22;26977;44.830;-0.674;2022-09-19T07:17:59;12.50;88.40
35690;DHT22;26977;44.830;-0.674;2022-09-19T07:20:27;12.50;88.10
35690;DHT22;26977;44.830;-0.674;2022-09-19T07:23:00;12.60;88.50
35690;DHT22;26977;44.830;-0.674;2022-09-19T07:25:26;12.70;87.50
35690;DHT22;26977;44.830;-0.674;2022-09-19T07:28:04;12.90;86.60
35690;DHT22;26977;44.830;-0.674;2022-09-19T07:30:31;12.90;86.40
35690;DHT22;26977;44.830;-0.674;2022-09-19T07:33:00;13.00;86.30
35690;DHT22;26977;44.830;-0.674;2022-09-19T07:35:27;13.10;85.50
35690;DHT22;26977;44.830;-0.674;2022-09-19T07:37:57;13.20;86.00
35690;DHT22;26977;44.830;-0.674;2022-09-19T07:40:22;13.30;85.60
35690;DHT22;26977;44.830;-0.674;2022-09-19T07:42:49;13.40;85.40
35690;DHT22;26977;44.830;-0.674;2022-09-19T07:45:17;13.40;84.80
35690;DHT22;26977;44.830;-0.674;2022-09-19T07:47:46;13.50;84.70
35690;DHT22;26977;44.830;-0.674;2022-09-19T07:50:14;13.60;84.60
35690;DHT22;26977;44.830;-0.674;2022-09-19T07:52:45;13.70;84.00
35690;DHT22;26977;44.830;-0.674;2022-09-19T07:55:13;13.80;84.10
35690;DHT22;26977;44.830;-0.674;2022-09-19T07:57:49;13.90;84.10
35690;DHT22;26977;44.830;-0.674;2022-09-19T08:00:16;14.00;83.70
35690;DHT22;26977;44.830;-0.674;2022-09-19T08:02:42;14.10;83.10
35690;DHT22;26977;44.830;-0.674;2022-09-19T08:05:08;14.20;83.30
35690;DHT22;26977;44.830;-0.674;2022-09-19T08:07:33;14.20;83.00
35690;DHT22;26977;44.830;-0.674;2022-09-19T08:09:59;14.30;82.80
35690;DHT22;26977;44.830;-0.674;2022-09-19T08:12:26;14.30;82.70
35690;DHT22;26977;44.830;-0.674;2022-09-19T08:14:52;14.40;82.90
35690;DHT22;26977;44.830;-0.674;2022-09-19T08:17:19;14.50;82.50
35690;DHT22;26977;44.830;-0.674;2022-09-19T08:19:45;14.60;82.90
35690;DHT22;26977;44.830;-0.674;2022-09-19T08:22:11;14.70;82.20
35690;DHT22;26977;44.830;-0.674;2022-09-19T08:24:37;14.90;81.90
35690;DHT22;26977;44.830;-0.674;2022-09-19T08:27:03;15.00;81.20
35690;DHT22;26977;44.830;-0.674;2022-09-19T08:29:29;15.10;81.10
35690;DHT22;26977;44.830;-0.674;2022-09-19T08:31:54;15.10;80.90
35690;DHT22;26977;44.830;-0.674;2022-09-19T08:34:20;15.10;80.70
35690;DHT22;26977;44.830;-0.674;2022-09-19T08:36:45;15.20;80.90
35690;DHT22;26977;44.830;-0.674;2022-09-19T08:39:11;15.30;80.90
35690;DHT22;26977;44.830;-0.674;2022-09-19T08:44:43;15.60;80.30
35690;DHT22;26977;44.830;-0.674;2022-09-19T08:47:15;15.80;79.10
35690;DHT22;26977;44.830;-0.674;2022-09-19T08:49:54;15.90;79.40
35690;DHT22;26977;44.830;-0.674;2022-09-19T08:52:39;16.00;78.70
35690;DHT22;26977;44.830;-0.674;2022-09-19T08:55:13;16.20;78.30
35690;DHT22;26977;44.830;-0.674;2022-09-19T08:57:54;16.30;78.00
35690;DHT22;26977;44.830;-0.674;2022-09-19T09:00:38;16.40;77.70
35690;DHT22;26977;44.830;-0.674;2022-09-19T09:03:07;16.60;76.80
35690;DHT22;26977;44.830;-0.674;2022-09-19T09:10:54;16.80;76.30
35690;DHT22;26977;44.830;-0.674;2022-09-19T09:13:25;16.90;75.80
35690;DHT22;26977;44.830;-0.674;2022-09-19T09:18:49;17.00;75.80
35690;DHT22;26977;44.830;-0.674;2022-09-19T09:21:24;17.00;75.50
35690;DHT22;26977;44.830;-0.674;2022-09-19T09:23:57;17.30;74.80
35690;DHT22;26977;44.830;-0.674;2022-09-19T09:26:27;17.30;75.00
35690;DHT22;26977;44.830;-0.674;2022-09-19T09:29:04;17.50;74.90
35690;DHT22;26977;44.830;-0.674;2022-09-19T09:31:39;17.70;73.90
35690;DHT22;26977;44.830;-0.674;2022-09-19T09:34:42;17.90;73.10
35690;DHT22;26977;44.830;-0.674;2022-09-19T09:39:52;18.10;72.60
35690;DHT22;26977;44.830;-0.674;2022-09-19T09:45:29;18.50;71.10
35690;DHT22;26977;44.830;-0.674;2022-09-19T09:48:18;18.60;70.40
35690;DHT22;26977;44.830;-0.674;2022-09-19T09:56:34;19.20;68.90
35690;DHT22;26977;44.830;-0.674;2022-09-19T10:00:07;19.30;67.20
35690;DHT22;26977;44.830;-0.674;2022-09-19T10:06:21;19.40;67.30
35690;DHT22;26977;44.830;-0.674;2022-09-19T10:08:57;19.40;66.30
35690;DHT22;26977;44.830;-0.674;2022-09-19T10:11:41;19.50;66.60
35690;DHT22;26977;44.830;-0.674;2022-09-19T10:14:19;19.70;66.00
35690;DHT22;26977;44.830;-0.674;2022-09-19T10:16:49;19.80;66.00
35690;DHT22;26977;44.830;-0.674;2022-09-19T10:22:12;19.90;65.60
35690;DHT22;26977;44.830;-0.674;2022-09-19T10:24:45;20.00;64.30
35690;DHT22;26977;44.830;-0.674;2022-09-19T10:29:59;20.40;64.60
35690;DHT22;26977;44.830;-0.674;2022-09-19T10:32:29;20.70;63.60
35690;DHT22;26977;44.830;-0.674;2022-09-19T10:38:16;20.80;62.90
35690;DHT22;26977;44.830;-0.674;2022-09-19T10:40:57;20.80;61.90
35690;DHT22;26977;44.830;-0.674;2022-09-19T10:44:02;20.70;61.30
35690;DHT22;26977;44.830;-0.674;2022-09-19T10:48:57;20.90;61.50
35690;DHT22;26977;44.830;-0.674;2022-09-19T10:51:37;20.90;61.20
35690;DHT22;26977;44.830;-0.674;2022-09-19T10:54:11;21.00;61.70
35690;DHT22;26977;44.830;-0.674;2022-09-19T10:56:39;21.30;61.00
35690;DHT22;26977;44.830;-0.674;2022-09-19T10:59:24;21.30;60.20
35690;DHT22;26977;44.830;-0.674;2022-09-19T11:04:34;21.50;59.90
35690;DHT22;26977;44.830;-0.674;2022-09-19T11:07:16;21.80;59.70
35690;DHT22;26977;44.830;-0.674;2022-09-19T11:09:43;21.90;58.50
35690;DHT22;26977;44.830;-0.674;2022-09-19T11:14:41;22.20;57.90
35690;DHT22;26977;44.830;-0.674;2022-09-19T11:20:16;22.30;56.40
35690;DHT22;26977;44.830;-0.674;2022-09-19T11:22:57;22.20;56.40
35690;DHT22;26977;44.830;-0.674;2022-09-19T11:25:36;22.30;56.80
35690;DHT22;26977;44.830;-0.674;2022-09-19T11:28:11;22.30;57.20
35690;DHT22;26977;44.830;-0.674;2022-09-19T11:44:30;22.50;57.70
35690;DHT22;26977;44.830;-0.674;2022-09-19T11:58:41;22.90;54.80
35690;DHT22;26977;44.830;-0.674;2022-09-19T12:09:23;23.20;55.00
35690;DHT22;26977;44.830;-0.674;2022-09-19T12:12:01;23.40;53.50
35690;DHT22;26977;44.830;-0.674;2022-09-19T12:14:40;23.50;53.70
35690;DHT22;26977;44.830;-0.674;2022-09-19T12:17:22;23.70;53.10
35690;DHT22;26977;44.830;-0.674;2022-09-19T12:19:55;23.90;51.80
35690;DHT22;26977;44.830;-0.674;2022-09-19T12:22:26;23.90;53.10
35690;DHT22;26977;44.830;-0.674;2022-09-19T12:25:08;23.90;53.40
35690;DHT22;26977;44.830;-0.674;2022-09-19T12:30:16;24.20;53.70
35690;DHT22;26977;44.830;-0.674;2022-09-19T12:35:48;24.40;52.60
35690;DHT22;26977;44.830;-0.674;2022-09-19T12:38:41;24.40;51.60
35690;DHT22;26977;44.830;-0.674;2022-09-19T12:41:56;24.40;52.40
35690;DHT22;26977;44.830;-0.674;2022-09-19T12:52:42;25.00;51.60
35690;DHT22;26977;44.830;-0.674;2022-09-19T12:55:23;25.00;52.30
35690;DHT22;26977;44.830;-0.674;2022-09-19T12:58:12;24.80;52.50
35690;DHT22;26977;44.830;-0.674;2022-09-19T13:00:42;25.00;52.20
35690;DHT22;26977;44.830;-0.674;2022-09-19T13:03:24;25.40;51.70
35690;DHT22;26977;44.830;-0.674;2022-09-19T13:06:27;25.70;51.70
35690;DHT22;26977;44.830;-0.674;2022-09-19T13:08:55;25.80;50.80
35690;DHT22;26977;44.830;-0.674;2022-09-19T13:11:40;26.00;51.50
35690;DHT22;26977;44.830;-0.674;2022-09-19T13:14:27;26.10;52.30
35690;DHT22;26977;44.830;-0.674;2022-09-19T13:17:00;26.60;52.90
35690;DHT22;26977;44.830;-0.674;2022-09-19T13:19:45;26.60;52.50
35690;DHT22;26977;44.830;-0.674;2022-09-19T13:22:44;26.60;52.10
35690;DHT22;26977;44.830;-0.674;2022-09-19T13:25:29;26.40;51.60
35690;DHT22;26977;44.830;-0.674;2022-09-19T13:33:24;29.70;48.30
35690;DHT22;26977;44.830;-0.674;2022-09-19T13:35:52;30.90;47.10
35690;DHT22;26977;44.830;-0.674;2022-09-19T13:38:24;32.30;46.50
35690;DHT22;26977;44.830;-0.674;2022-09-19T13:41:21;30.80;46.10
35690;DHT22;26977;44.830;-0.674;2022-09-19T13:44:00;30.80;46.60
35690;DHT22;26977;44.830;-0.674;2022-09-19T13:46:37;31.70;46.70
35690;DHT22;26977;44.830;-0.674;2022-09-19T13:51:42;32.40;46.00
35690;DHT22;26977;44.830;-0.674;2022-09-19T13:59:31;33.00;45.00
35690;DHT22;26977;44.830;-0.674;2022-09-19T14:10:14;32.60;44.30
35690;DHT22;26977;44.830;-0.674;2022-09-19T14:23:14;34.30;43.70
35690;DHT22;26977;44.830;-0.674;2022-09-19T14:25:43;33.90;43.90
35690;DHT22;26977;44.830;-0.674;2022-09-19T14:39:14;32.50;44.50
35690;DHT22;26977;44.830;-0.674;2022-09-19T14:47:20;33.40;43.80
35690;DHT22;26977;44.830;-0.674;2022-09-19T14:49:56;33.60;43.20
35690;DHT22;26977;44.830;-0.674;2022-09-19T14:52:26;33.80;43.00
35690;DHT22;26977;44.830;-0.674;2022-09-19T14:55:03;34.10;42.70
35690;DHT22;26977;44.830;-0.674;2022-09-19T14:57:31;33.70;42.80
35690;DHT22;26977;44.830;-0.674;2022-09-19T15:00:25;33.20;42.70
35690;DHT22;26977;44.830;-0.674;2022-09-19T15:02:55;33.30;42.80
35690;DHT22;26977;44.830;-0.674;2022-09-19T15:07:49;34.10;42.50
35690;DHT22;26977;44.830;-0.674;2022-09-19T15:10:35;34.00;42.00
35690;DHT22;26977;44.830;-0.674;2022-09-19T15:15:45;35.30;42.20
35690;DHT22;26977;44.830;-0.674;2022-09-19T15:18:25;35.50;42.10
35690;DHT22;26977;44.830;-0.674;2022-09-19T15:20:56;34.70;43.20
35690;DHT22;26977;44.830;-0.674;2022-09-19T15:23:24;34.70;42.60
35690;DHT22;26977;44.830;-0.674;2022-09-19T15:26:00;34.40;43.20
35690;DHT22;26977;44.830;-0.674;2022-09-19T15:28:35;34.80;42.70
35690;DHT22;26977;44.830;-0.674;2022-09-19T15:33:42;34.20;42.80
35690;DHT22;26977;44.830;-0.674;2022-09-19T15:36:16;33.80;43.50
35690;DHT22;26977;44.830;-0.674;2022-09-19T15:38:43;34.40;43.20
35690;DHT22;26977;44.830;-0.674;2022-09-19T15:41:09;33.70;43.00
35690;DHT22;26977;44.830;-0.674;2022-09-19T15:43:43;33.90;43.20
35690;DHT22;26977;44.830;-0.674;2022-09-19T15:49:00;32.10;44.00
35690;DHT22;26977;44.830;-0.674;2022-09-19T15:51:35;33.30;42.90
35690;DHT22;26977;44.830;-0.674;2022-09-19T15:54:04;33.70;42.40
35690;DHT22;26977;44.830;-0.674;2022-09-19T15:56:42;33.30;42.10
35690;DHT22;26977;44.830;-0.674;2022-09-19T15:59:16;33.40;42.10
35690;DHT22;26977;44.830;-0.674;2022-09-19T16:01:49;33.30;41.60
35690;DHT22;26977;44.830;-0.674;2022-09-19T16:04:19;32.00;42.30
35690;DHT22;26977;44.830;-0.674;2022-09-19T16:09:38;32.60;42.20
35690;DHT22;26977;44.830;-0.674;2022-09-19T16:14:59;32.00;42.10
35690;DHT22;26977;44.830;-0.674;2022-09-19T16:17:25;32.10;41.60
35690;DHT22;26977;44.830;-0.674;2022-09-19T16:20:35;31.40;41.80
35690;DHT22;26977;44.830;-0.674;2022-09-19T16:23:18;29.90;42.70
35690;DHT22;26977;44.830;-0.674;2022-09-19T16:30:55;30.60;42.60
35690;DHT22;26977;44.830;-0.674;2022-09-19T16:33:32;31.00;42.10
35690;DHT22;26977;44.830;-0.674;2022-09-19T16:36:00;31.60;42.20
35690;DHT22;26977;44.830;-0.674;2022-09-19T16:38:26;32.30;41.70
35690;DHT22;26977;44.830;-0.674;2022-09-19T16:40:59;32.60;41.20
35690;DHT22;26977;44.830;-0.674;2022-09-19T16:43:36;31.40;41.50
35690;DHT22;26977;44.830;-0.674;2022-09-19T16:46:04;31.90;42.00
35690;DHT22;26977;44.830;-0.674;2022-09-19T16:48:32;32.40;42.30
35690;DHT22;26977;44.830;-0.674;2022-09-19T16:50:58;31.80;42.00
35690;DHT22;26977;44.830;-0.674;2022-09-19T16:53:24;31.40;42.10
35690;DHT22;26977;44.830;-0.674;2022-09-19T16:55:50;31.10;42.40
35690;DHT22;26977;44.830;-0.674;2022-09-19T16:58:16;30.40;42.70
35690;DHT22;26977;44.830;-0.674;2022-09-19T17:00:43;28.60;44.20
35690;DHT22;26977;44.830;-0.674;2022-09-19T17:03:11;28.60;44.70
35690;DHT22;26977;44.830;-0.674;2022-09-19T17:05:40;28.20;44.90
35690;DHT22;26977;44.830;-0.674;2022-09-19T17:08:06;27.00;45.60
35690;DHT22;26977;44.830;-0.674;2022-09-19T17:10:32;26.60;46.70
35690;DHT22;26977;44.830;-0.674;2022-09-19T17:12:58;26.00;47.30
35690;DHT22;26977;44.830;-0.674;2022-09-19T17:15:40;25.50;47.80
35690;DHT22;26977;44.830;-0.674;2022-09-19T17:18:07;25.10;48.30
35690;DHT22;26977;44.830;-0.674;2022-09-19T17:20:34;24.70;48.80
35690;DHT22;26977;44.830;-0.674;2022-09-19T17:23:01;24.40;49.20
35690;DHT22;26977;44.830;-0.674;2022-09-19T17:25:43;24.10;49.30
35690;DHT22;26977;44.830;-0.674;2022-09-19T17:28:11;23.80;49.70
35690;DHT22;26977;44.830;-0.674;2022-09-19T17:30:37;23.60;49.90
35690;DHT22;26977;44.830;-0.674;2022-09-19T17:33:03;23.40;50.20
35690;DHT22;26977;44.830;-0.674;2022-09-19T17:35:28;23.30;50.70
35690;DHT22;26977;44.830;-0.674;2022-09-19T17:37:54;23.10;51.00
35690;DHT22;26977;44.830;-0.674;2022-09-19T17:40:21;23.00;51.60
35690;DHT22;26977;44.830;-0.674;2022-09-19T17:42:47;22.90;51.80
35690;DHT22;26977;44.830;-0.674;2022-09-19T17:45:14;22.80;52.20
35690;DHT22;26977;44.830;-0.674;2022-09-19T17:47:42;22.60;52.40
35690;DHT22;26977;44.830;-0.674;2022-09-19T17:50:08;22.50;52.80
35690;DHT22;26977;44.830;-0.674;2022-09-19T17:52:35;22.40;53.20
35690;DHT22;26977;44.830;-0.674;2022-09-19T17:55:01;22.30;53.70
35690;DHT22;26977;44.830;-0.674;2022-09-19T17:57:27;22.20;53.80
35690;DHT22;26977;44.830;-0.674;2022-09-19T17:59:53;22.10;54.10
35690;DHT22;26977;44.830;-0.674;2022-09-19T18:02:18;21.90;54.30
35690;DHT22;26977;44.830;-0.674;2022-09-19T18:05:03;21.80;54.60
35690;DHT22;26977;44.830;-0.674;2022-09-19T18:07:28;21.60;55.20
35690;DHT22;26977;44.830;-0.674;2022-09-19T18:09:57;21.50;55.40
35690;DHT22;26977;44.830;-0.674;2022-09-19T18:12:23;21.40;55.70
35690;DHT22;26977;44.830;-0.674;2022-09-19T18:14:51;21.30;56.20
35690;DHT22;26977;44.830;-0.674;2022-09-19T18:17:17;21.20;56.50
35690;DHT22;26977;44.830;-0.674;2022-09-19T18:19:51;21.10;56.80
35690;DHT22;26977;44.830;-0.674;2022-09-19T18:22:17;21.00;57.10
35690;DHT22;26977;44.830;-0.674;2022-09-19T18:24:43;20.90;57.50
35690;DHT22;26977;44.830;-0.674;2022-09-19T18:27:09;20.90;57.70
35690;DHT22;26977;44.830;-0.674;2022-09-19T18:29:36;20.70;58.20
35690;DHT22;26977;44.830;-0.674;2022-09-19T18:32:02;20.70;58.50
35690;DHT22;26977;44.830;-0.674;2022-09-19T18:34:31;20.60;59.10
35690;DHT22;26977;44.830;-0.674;2022-09-19T18:36:56;20.50;59.40
35690;DHT22;26977;44.830;-0.674;2022-09-19T18:39:22;20.40;59.70
35690;DHT22;26977;44.830;-0.674;2022-09-19T18:41:48;20.30;60.20
35690;DHT22;26977;44.830;-0.674;2022-09-19T18:44:14;20.20;60.50
35690;DHT22;26977;44.830;-0.674;2022-09-19T18:46:39;20.10;60.90
35690;DHT22;26977;44.830;-0.674;2022-09-19T18:49:05;20.00;61.10
35690;DHT22;26977;44.830;-0.674;2022-09-19T18:51:31;19.90;61.60
35690;DHT22;26977;44.830;-0.674;2022-09-19T18:53:57;19.80;62.20
35690;DHT22;26977;44.830;-0.674;2022-09-19T18:56:26;19.90;62.30